Naples, FL (34113)

8:07 AM EDT on September 30, 2014 (GMT -0400)
Kings Lake | Change Station
CLOSE
Current Station
Personal Weather Station
Location: Naples, FL
Elevation: 13 ft
Nearby Weather Stations

Elev 13 ft 26.12 °N, 81.74 °W | Updated 4 seconds ago

Clear
Clear
77.4 °F
Feels Like 75 °F
N
0.0
Wind Variable Wind from SW
Gusts 0.0 mph

Today
High -- | Low -- °F
--% Chance of Precip.
Yesterday
High -- | Low -- °F
Precip. -- in
7:18 AM 7:14 PM
Waxing Crescent, 36% visible
Pressure 29.86 in
Visibility 10.0 miles
Clouds Few 3700 ft
Heat Index 75 °F
Dew Point Not available.
Humidity Not available.
Rainfall 0.00 in
Snow Depth Not available.
UV 0 out of 12
Pollen 3.20 out of 12
Air Quality Not available.
Flu Activity Not available.
METAR KMKY 301155Z AUTO 28004KT 10SM FEW037 27/24 A2986 RMK AO1 70001 10270 20250 52014

More Conditions Fewer Conditions

Pressure 29.86 in
Visibility 10.0 miles
Clouds Few 3700 ft
Heat Index 75 °F
Dew Point Not available.
Humidity Not available.
Rainfall 0.00 in
Snow Depth Not available.
UV 0 out of 12
Pollen 3.20 out of 12
Air Quality Not available.
Flu Activity Not available.
METAR KMKY 301155Z AUTO 28004KT 10SM FEW037 27/24 A2986 RMK AO1 70001 10270 20250 52014

More Conditions Fewer Conditions

10-Day Weather Forecast

Almanac

Astronomy

Sep. 30, 2014 Rise Set
Actual Time 7:18 AM EDT 7:14 PM EDT
Civil Twilight 6:55 AM EDT 7:37 PM EDT
Nautical Twilight 6:29 AM EDT 8:04 PM EDT
Astronomical Twilight 6:02 AM EDT 8:31 PM EDT
Moon 1:00 PM EDT No Moon Set
Length of Visible Light 12h 41m
Length of Day
11h 55m
Tomorrow will be 1m 31s shorter.
Waxing Crescent, 36% of the Moon is Illuminated
Today
Waxing Crescent
Oct 1
First Quarter
Oct 8
Full
Oct 15
Last Quarter
Oct 23
New

Today's Extremes

State Highs State Lows

Community

WunderPhotos

Upload Photos

1,757,619 photos uploaded!

Nearby

Snow Depth

Station Depth Elevation
No new snow has been reported.

Earthquake Activity

City Distance Mag. Time & Date
No recent earthquake activity has been reported nearby.
Minimum magnitude displayed is 2.5.

Coastal Water Temperatures

Place Temperature
Naples, FL 86.0 °F

Nearby Weather Stations